Millboro, North Carolina
Current Conditions -  °F | °C
As of 10:35 PM on Friday 28 Nov 2014 (Local Time) from K5W8 Reporting Station
Clear Clear  
Wind Chill: 26°   Ceiling: Unl
Heat Index: 26°   Visibility: 10mi
Dew Point: 25°   Wind: 0mph
Humidity: 95%   Direction: NA
Pressure: 30.29"   Gusts: NA
Location:  35.8068°N, 79.7101°W
Report Text: K5W8 290335Z AUTO 00000KT 10SM CLR M03/M04 A3029 RMK AO2 T10311038
Loading
Personal Weather Stations






























Interactive Weather Map New forecast layout! Learn more

10-Day Weather Forecast

Advertisements
Track Severe Weather on mobile